Time;durP1;ratioP1;P1;durP2;ratioP2;P2;SDS_P1;SDS_P2;PMS_P1;PMS_P2;Temp;Humidity;BMP_temperature;BMP_pressure;BME280_temperature;BME280_humidity;BME280_pressure;Samples;Min_cycle;Max_cycle;Signal;HPM_P1;HPM_P2
2021/12/04 00:00:26;;;;;;;1.67;1.58;;;6.90;99.90;;;;;;4974589;28;20181;-78
2021/12/04 00:02:52;;;;;;;2.10;1.90;;;6.90;99.90;;;;;;4974407;28;20257;-79
2021/12/04 00:05:19;;;;;;;1.73;1.63;;;7.10;99.90;;;;;;4974745;28;20162;-77
2021/12/04 00:07:45;;;;;;;1.55;1.45;;;7.30;99.90;;;;;;4956913;28;20221;-78
2021/12/04 00:10:26;;;;;;;1.92;1.80;;;7.40;99.90;;;;;;4956801;28;20213;-78
2021/12/04 00:12:52;;;;;;;1.77;1.60;;;7.60;99.90;;;;;;4974319;28;20228;-82
2021/12/04 00:15:18;;;;;;;1.98;1.80;;;7.50;99.90;;;;;;4956789;28;20162;-78
2021/12/04 00:17:44;;;;;;;1.55;1.45;;;7.60;99.90;;;;;;4956928;28;20214;-78
2021/12/04 00:20:10;;;;;;;1.35;1.30;;;7.40;99.90;;;;;;4974226;28;20166;-78
2021/12/04 00:22:37;;;;;;;1.70;1.60;;;7.50;99.90;;;;;;4973845;28;20284;-79
2021/12/04 00:25:08;;;;;;;1.70;1.60;;;7.40;99.90;;;;;;4973908;28;20177;-77
2021/12/04 00:27:33;;;;;;;1.70;1.55;;;7.20;99.90;;;;;;4973765;28;20652;-77
2021/12/04 00:29:59;;;;;;;3.17;2.05;;;7.20;99.90;;;;;;4974061;28;20391;-78
2021/12/04 00:35:00;;;;;;;1.80;1.70;;;7.20;99.90;;;;;;4974081;28;20178;-77
2021/12/04 00:37:38;;;;;;;2.00;1.90;;;7.30;99.90;;;;;;4956087;28;20221;-81
2021/12/04 00:51:01;;;;;;;1.90;1.80;;;7.10;99.90;;;;;;4973718;28;20181;-77
2021/12/04 00:53:26;;;;;;;1.67;1.58;;;7.30;99.90;;;;;;4956477;28;20177;-77
2021/12/04 00:55:52;;;;;;;3.17;1.92;;;7.30;99.90;;;;;;4973573;28;20193;-77
2021/12/04 00:58:17;;;;;;;2.47;2.22;;;7.20;99.90;;;;;;4973145;28;20248;-77
2021/12/04 01:00:43;;;;;;;3.67;2.13;;;7.00;99.90;;;;;;4973639;28;20174;-77
2021/12/04 01:03:09;;;;;;;1.85;1.75;;;7.10;99.90;;;;;;4973817;28;20536;-77
2021/12/04 01:05:35;;;;;;;5.47;2.20;;;7.00;99.90;;;;;;4975889;28;20170;-78
2021/12/04 01:08:00;;;;;;;1.80;1.70;;;7.00;99.90;;;;;;4975503;28;20181;-77
2021/12/04 01:10:26;;;;;;;1.98;1.88;;;6.70;99.90;;;;;;4974777;28;20639;-79
2021/12/04 01:12:52;;;;;;;1.80;1.70;;;6.80;99.90;;;;;;4975137;28;20636;-77
2021/12/04 01:15:18;;;;;;;1.80;1.70;;;6.90;99.90;;;;;;4974633;28;20174;-77
2021/12/04 01:17:44;;;;;;;2.20;1.73;;;7.10;99.90;;;;;;4974533;28;20206;-77
2021/12/04 01:20:11;;;;;;;1.92;1.83;;;7.20;99.90;;;;;;4974684;28;20177;-79
2021/12/04 01:22:36;;;;;;;2.15;1.95;;;7.20;99.90;;;;;;4974575;28;20252;-78
2021/12/04 01:25:03;;;;;;;1.90;1.80;;;6.90;99.90;;;;;;4974965;28;20189;-78
2021/12/04 01:27:29;;;;;;;1.92;1.83;;;7.00;99.90;;;;;;4974863;28;20221;-82
2021/12/04 01:29:54;;;;;;;2.42;2.22;;;7.00;99.90;;;;;;4975833;28;20170;-83
2021/12/04 01:32:20;;;;;;;2.30;2.10;;;6.90;99.90;;;;;;4975166;28;20178;-81
2021/12/04 01:34:45;;;;;;;2.15;1.98;;;6.90;99.90;;;;;;4975028;28;20194;-78
2021/12/04 01:37:11;;;;;;;2.10;1.90;;;6.90;99.90;;;;;;4974266;28;20289;-77
2021/12/04 01:39:37;;;;;;;1.80;1.70;;;7.00;99.90;;;;;;4974022;28;20166;-77
2021/12/04 01:42:03;;;;;;;2.00;1.90;;;7.10;99.90;;;;;;4974808;28;20521;-77
2021/12/04 01:44:28;;;;;;;2.47;2.05;;;7.10;99.90;;;;;;4974882;28;20181;-78
2021/12/04 01:46:56;;;;;;;2.72;1.70;;;7.10;99.90;;;;;;4973563;28;20194;-78
2021/12/04 01:49:25;;;;;;;2.10;1.77;;;7.10;99.90;;;;;;4974378;28;20181;-78
2021/12/04 01:51:51;;;;;;;1.83;1.73;;;7.10;99.90;;;;;;4979889;28;20162;-78
2021/12/04 01:54:17;;;;;;;2.55;2.35;;;7.40;99.90;;;;;;4981208;28;20166;-77
2021/12/04 01:56:42;;;;;;;2.30;2.10;;;7.20;99.90;;;;;;4976913;28;20562;-78
2021/12/04 01:59:09;;;;;;;2.42;1.80;;;7.40;99.90;;;;;;4976889;28;20180;-77
2021/12/04 02:01:34;;;;;;;1.92;1.83;;;7.30;99.90;;;;;;4976447;28;20212;-81
2021/12/04 02:04:00;;;;;;;2.38;2.17;;;7.30;99.90;;;;;;4976633;28;20198;-78
2021/12/04 02:06:26;;;;;;;2.00;1.90;;;7.30;99.90;;;;;;4976136;28;20276;-78
2021/12/04 02:08:51;;;;;;;2.15;1.85;;;7.30;99.90;;;;;;4976051;28;20166;-77
2021/12/04 02:11:17;;;;;;;2.25;1.95;;;7.40;99.90;;;;;;4976167;28;20174;-78
2021/12/04 02:13:43;;;;;;;2.10;1.90;;;7.60;99.90;;;;;;4976241;28;20177;-78
2021/12/04 02:16:17;;;;;;;2.20;2.10;;;7.70;99.90;;;;;;4976010;28;20190;-78
2021/12/04 02:18:43;;;;;;;1.85;1.75;;;7.40;99.90;;;;;;4958831;28;20209;-78
2021/12/04 02:21:09;;;;;;;1.85;1.75;;;7.40;99.90;;;;;;4958773;28;20194;-78
2021/12/04 02:23:34;;;;;;;2.00;1.90;;;7.50;99.90;;;;;;4976124;28;20182;-81
2021/12/04 02:26:01;;;;;;;2.35;2.17;;;7.70;99.90;;;;;;4976342;28;20189;-85
2021/12/04 02:28:27;;;;;;;2.20;2.10;;;7.80;99.90;;;;;;4959025;28;20166;-78
2021/12/04 02:30:52;;;;;;;2.15;1.95;;;7.90;99.90;;;;;;4958898;28;20177;-83
2021/12/04 02:33:18;;;;;;;2.10;1.90;;;8.00;99.90;;;;;;4976078;28;20177;-79
2021/12/04 02:36:05;;;;;;;1.92;1.83;;;7.90;99.90;;;;;;4958603;28;20174;-78
2021/12/04 02:38:31;;;;;;;1.67;1.58;;;7.90;99.90;;;;;;4975971;28;20213;-79
2021/12/04 02:41:02;;;;;;;1.90;1.75;;;7.90;99.90;;;;;;4975985;28;20224;-78
2021/12/04 02:43:33;;;;;;;2.10;2.00;;;7.90;99.90;;;;;;4958130;28;20265;-84
2021/12/04 02:45:59;;;;;;;2.20;2.00;;;7.70;99.90;;;;;;4975619;28;20178;-78
2021/12/04 02:48:25;;;;;;;1.90;1.80;;;7.60;99.90;;;;;;4975828;28;20518;-78
2021/12/04 02:50:50;;;;;;;1.60;1.50;;;7.70;99.90;;;;;;4975503;28;20173;-78
2021/12/04 02:53:17;;;;;;;2.00;1.73;;;7.90;99.90;;;;;;4975685;28;20174;-78
2021/12/04 02:55:44;;;;;;;1.92;1.83;;;8.00;99.90;;;;;;4958229;28;20170;-83
2021/12/04 02:58:10;;;;;;;1.92;1.65;;;8.20;99.90;;;;;;4975861;28;20218;-78
2021/12/04 03:00:41;;;;;;;2.30;2.17;;;8.40;99.90;;;;;;4975127;28;20162;-80
2021/12/04 03:03:07;;;;;;;2.92;2.17;;;8.40;99.90;;;;;;4975705;28;20193;-83
2021/12/04 03:05:33;;;;;;;2.22;1.98;;;8.30;99.90;;;;;;4975624;28;20248;-80
2021/12/04 03:08:01;;;;;;;2.30;2.10;;;8.30;99.90;;;;;;4975654;28;20178;-78
2021/12/04 03:10:27;;;;;;;2.90;2.20;;;8.40;99.90;;;;;;4975643;28;20166;-84
2021/12/04 03:12:53;;;;;;;2.30;2.10;;;8.30;99.90;;;;;;4975453;28;20174;-78
2021/12/04 03:15:21;;;;;;;2.38;2.17;;;8.50;99.90;;;;;;4958046;28;20636;-78
2021/12/04 03:17:47;;;;;;;2.22;2.03;;;8.40;99.90;;;;;;4975069;28;20570;-78
2021/12/04 03:20:12;;;;;;;2.20;2.10;;;8.30;99.90;;;;;;4975232;28;20164;-79
2021/12/04 03:22:43;;;;;;;2.80;2.38;;;8.10;99.90;;;;;;4975006;28;20558;-78
2021/12/04 03:25:09;;;;;;;2.60;2.40;;;8.10;99.90;;;;;;4975028;28;20170;-84
2021/12/04 03:27:35;;;;;;;2.67;2.47;;;8.20;99.90;;;;;;4977404;28;20682;-83
2021/12/04 03:30:06;;;;;;;3.05;2.10;;;8.30;99.90;;;;;;4975808;28;20197;-79
2021/12/04 03:32:57;;;;;;;2.83;2.20;;;8.10;99.90;;;;;;4975493;28;20166;-80
2021/12/04 03:41:02;;;;;;;2.78;2.58;;;8.30;99.90;;;;;;4976146;28;20193;-79
2021/12/04 03:43:29;;;;;;;2.45;2.25;;;8.30;99.90;;;;;;4975485;28;20169;-78
2021/12/04 03:46:03;;;;;;;2.88;2.67;;;8.10;99.90;;;;;;4975605;28;20185;-79
2021/12/04 03:50:57;;;;;;;3.40;2.58;;;8.30;99.90;;;;;;4975321;28;20201;-78
2021/12/04 03:53:22;;;;;;;3.08;2.88;;;8.40;99.90;;;;;;4975105;28;20248;-78
2021/12/04 03:55:49;;;;;;;2.30;2.10;;;8.40;99.90;;;;;;4975142;28;20679;-82
2021/12/04 03:58:15;;;;;;;2.83;2.58;;;8.10;99.90;;;;;;4975491;28;20652;-79
2021/12/04 04:00:41;;;;;;;2.50;2.30;;;8.00;99.90;;;;;;4975099;28;20169;-80
2021/12/04 04:03:07;;;;;;;5.32;2.92;;;8.20;99.90;;;;;;4974932;28;20178;-78
2021/12/04 04:05:35;;;;;;;2.72;2.53;;;8.40;99.90;;;;;;4974528;28;20174;-78
2021/12/04 04:08:01;;;;;;;2.42;2.22;;;8.60;99.90;;;;;;4975578;28;20672;-79
2021/12/04 04:10:27;;;;;;;2.60;2.40;;;8.40;99.90;;;;;;4974967;28;20174;-83
2021/12/04 04:12:52;;;;;;;2.70;2.50;;;8.40;99.90;;;;;;4974751;28;20602;-79
2021/12/04 04:15:20;;;;;;;2.83;2.63;;;8.40;99.90;;;;;;4974530;28;20741;-81
2021/12/04 04:17:47;;;;;;;2.90;2.70;;;8.50;99.90;;;;;;4975491;28;20699;-78
2021/12/04 04:20:15;;;;;;;3.10;2.85;;;8.40;99.90;;;;;;4958566;28;20266;-77
2021/12/04 04:22:42;;;;;;;2.92;2.72;;;8.30;99.90;;;;;;4977326;28;20252;-78
2021/12/04 04:25:09;;;;;;;5.28;2.80;;;8.50;99.90;;;;;;4957459;28;20223;-77
2021/12/04 04:27:38;;;;;;;3.30;3.05;;;8.50;99.90;;;;;;4956937;28;20285;-78
2021/12/04 04:30:12;;;;;;;4.30;2.47;;;8.60;99.90;;;;;;4974884;28;20176;-78
2021/12/04 04:32:37;;;;;;;3.17;2.95;;;8.60;99.90;;;;;;4957044;28;20173;-78
2021/12/04 04:35:13;;;;;;;3.10;2.90;;;8.70;99.90;;;;;;4974377;28;20181;-78
2021/12/04 04:57:33;;;;;;;3.22;2.92;;;8.70;99.90;;;;;;4975319;28;20177;-77
2021/12/04 05:02:02;;;;;;;4.22;3.85;;;8.40;99.90;;;;;;4953505;29;20175;-77
2021/12/04 05:15:22;;;;;;;5.15;2.55;;;8.80;99.90;;;;;;4953266;29;20181;-79
2021/12/04 05:20:32;;;;;;;2.97;2.78;;;8.80;99.90;;;;;;4970797;28;20166;-78
2021/12/04 05:22:58;;;;;;;2.20;2.00;;;8.50;99.90;;;;;;4974132;28;20189;-78
2021/12/04 05:25:24;;;;;;;2.97;2.60;;;8.50;99.90;;;;;;4959123;28;20530;-78
2021/12/04 05:27:49;;;;;;;2.20;2.00;;;8.60;99.90;;;;;;4978491;28;20196;-78
2021/12/04 05:30:15;;;;;;;3.45;2.10;;;8.70;99.90;;;;;;4959804;28;20205;-78
2021/12/04 05:32:41;;;;;;;2.15;1.95;;;8.60;99.90;;;;;;4976875;28;20195;-78
2021/12/04 05:35:07;;;;;;;3.38;2.00;;;8.40;99.90;;;;;;4959839;28;20166;-78
2021/12/04 05:37:32;;;;;;;2.60;2.40;;;8.40;99.90;;;;;;4977350;28;20232;-76
2021/12/04 05:39:58;;;;;;;8.15;1.95;;;8.40;99.90;;;;;;4976965;28;20633;-76
2021/12/04 05:42:23;;;;;;;2.10;2.00;;;8.60;99.90;;;;;;4977041;28;20170;-76
2021/12/04 05:44:49;;;;;;;2.00;1.90;;;8.60;99.90;;;;;;4959788;28;20169;-79
2021/12/04 05:47:23;;;;;;;3.03;2.35;;;8.60;99.90;;;;;;4976952;28;20190;-79
2021/12/04 05:57:33;;;;;;;1.85;1.75;;;8.30;99.90;;;;;;4982291;28;20360;-80
2021/12/04 05:59:59;;;;;;;1.95;1.85;;;8.30;99.90;;;;;;4980110;28;20636;-83
2021/12/04 06:02:25;;;;;;;5.22;1.80;;;8.40;99.90;;;;;;4981444;28;20204;-80
2021/12/04 06:04:51;;;;;;;6.50;1.73;;;8.40;99.90;;;;;;4979811;28;20197;-78
2021/12/04 06:07:16;;;;;;;1.85;1.75;;;8.40;99.90;;;;;;4962722;28;20555;-79
2021/12/04 06:09:43;;;;;;;1.83;1.67;;;8.40;99.90;;;;;;4979867;28;20177;-79
2021/12/04 06:12:09;;;;;;;2.47;1.73;;;8.40;99.90;;;;;;4945879;28;20264;-79
2021/12/04 06:14:35;;;;;;;2.25;2.05;;;8.60;99.90;;;;;;4979702;28;20202;-79
2021/12/04 06:17:02;;;;;;;2.10;1.90;;;8.40;99.90;;;;;;4981468;28;20684;-83
2021/12/04 06:24:56;;;;;;;5.68;1.63;;;8.60;99.90;;;;;;4982393;28;20221;-80
2021/12/04 06:27:23;;;;;;;3.05;1.90;;;8.50;99.90;;;;;;4984092;28;20563;-82
2021/12/04 06:29:48;;;;;;;2.10;1.98;;;8.40;99.90;;;;;;4983483;28;20162;-78
2021/12/04 06:32:19;;;;;;;2.22;1.90;;;8.10;99.90;;;;;;4984633;28;20304;-77
2021/12/04 06:34:44;;;;;;;2.28;1.58;;;7.90;99.90;;;;;;4982280;28;20174;-78
2021/12/04 06:37:10;;;;;;;1.70;1.60;;;7.90;99.90;;;;;;4965389;28;20292;-86
2021/12/04 06:39:35;;;;;;;2.50;1.98;;;8.00;99.90;;;;;;4984480;28;20170;-82
2021/12/04 06:42:01;;;;;;;1.40;1.30;;;7.90;99.90;;;;;;4983144;28;20177;-83
2021/12/04 06:44:27;;;;;;;1.50;1.40;;;7.90;99.90;;;;;;4985391;28;20166;-80
2021/12/04 06:46:54;;;;;;;1.88;1.75;;;8.00;99.90;;;;;;4986997;28;20202;-79
2021/12/04 06:49:25;;;;;;;1.83;1.73;;;8.10;99.90;;;;;;4969670;28;20190;-77
2021/12/04 06:51:55;;;;;;;1.80;1.70;;;8.00;99.90;;;;;;4987261;28;20197;-79
2021/12/04 06:54:25;;;;;;;1.88;1.77;;;8.00;99.90;;;;;;4965916;28;20198;-80
2021/12/04 06:56:50;;;;;;;3.63;1.70;;;7.90;99.90;;;;;;4980612;28;20193;-78
2021/12/04 06:59:24;;;;;;;2.55;2.05;;;8.00;99.90;;;;;;4958906;28;20170;-80
2021/12/04 07:01:50;;;;;;;1.98;1.80;;;8.20;99.90;;;;;;4980275;28;20169;-75
2021/12/04 07:04:18;;;;;;;1.92;1.83;;;8.30;99.90;;;;;;4977021;28;20526;-80
2021/12/04 07:06:45;;;;;;;2.35;2.05;;;8.10;99.90;;;;;;4975702;28;20182;-75
2021/12/04 07:09:11;;;;;;;2.42;2.22;;;8.10;99.90;;;;;;4976605;28;20170;-81
2021/12/04 07:11:37;;;;;;;2.30;2.10;;;8.10;99.90;;;;;;4958754;28;20176;-75
2021/12/04 07:14:03;;;;;;;2.60;2.17;;;8.10;99.90;;;;;;4975610;28;20659;-79
2021/12/04 07:16:30;;;;;;;3.35;1.88;;;8.30;99.90;;;;;;4975895;28;20522;-84
2021/12/04 07:18:55;;;;;;;1.88;1.70;;;8.30;99.90;;;;;;4975940;28;20178;-76
2021/12/04 07:21:21;;;;;;;1.98;1.88;;;8.00;99.90;;;;;;4975502;28;20181;-84
2021/12/04 07:23:47;;;;;;;2.20;2.00;;;8.20;99.90;;;;;;4975738;28;20567;-77
2021/12/04 07:26:13;;;;;;;1.90;1.80;;;8.20;99.90;;;;;;4975389;28;20186;-81
2021/12/04 07:28:39;;;;;;;2.13;1.90;;;8.10;99.90;;;;;;4975082;28;20227;-78
2021/12/04 07:31:04;;;;;;;2.33;2.10;;;7.70;99.90;;;;;;4975478;28;20644;-77
2021/12/04 07:33:30;;;;;;;2.47;2.28;;;7.70;99.90;;;;;;4975182;28;20538;-77
2021/12/04 07:36:00;;;;;;;2.22;2.00;;;7.90;99.90;;;;;;4975226;28;20204;-77
2021/12/04 07:38:27;;;;;;;2.42;2.22;;;8.00;99.90;;;;;;4974773;28;20206;-77
2021/12/04 07:40:52;;;;;;;2.58;2.28;;;7.90;99.90;;;;;;4975092;28;20631;-82
2021/12/04 07:43:18;;;;;;;2.70;2.50;;;8.00;99.90;;;;;;4974619;28;20198;-78
2021/12/04 07:45:44;;;;;;;5.43;2.92;;;8.10;99.90;;;;;;4974643;28;20244;-78
2021/12/04 07:48:09;;;;;;;2.60;2.40;;;8.10;99.90;;;;;;4974698;28;20236;-76
2021/12/04 07:50:36;;;;;;;2.53;2.33;;;8.30;99.90;;;;;;4974926;28;20507;-77
2021/12/04 07:53:02;;;;;;;2.72;2.53;;;8.10;99.90;;;;;;4974576;28;20166;-77
2021/12/04 07:55:29;;;;;;;3.38;3.00;;;8.00;99.90;;;;;;4957544;28;20174;-81
2021/12/04 07:57:55;;;;;;;3.50;2.85;;;7.90;99.90;;;;;;4974763;28;20284;-85
2021/12/04 08:00:23;;;;;;;3.40;3.10;;;7.90;99.90;;;;;;4974640;28;20637;-85
2021/12/04 08:02:50;;;;;;;3.20;2.75;;;7.90;99.90;;;;;;4975132;28;20181;-81
2021/12/04 08:05:16;;;;;;;3.63;3.20;;;7.80;99.90;;;;;;4974571;28;20166;-81
2021/12/04 08:07:42;;;;;;;3.05;2.70;;;7.80;99.90;;;;;;4974183;28;20271;-79
2021/12/04 08:10:11;;;;;;;3.92;2.72;;;7.80;99.90;;;;;;4973870;28;20234;-81
2021/12/04 08:12:37;;;;;;;2.90;2.70;;;7.90;99.90;;;;;;4974367;28;20174;-79
2021/12/04 08:15:08;;;;;;;5.30;2.85;;;8.00;99.90;;;;;;4974075;28;20155;-77
2021/12/04 08:17:34;;;;;;;3.70;2.60;;;8.30;99.90;;;;;;4972709;28;20227;-77
2021/12/04 08:20:00;;;;;;;3.03;2.58;;;8.30;99.90;;;;;;4973842;28;20162;-78
2021/12/04 08:22:26;;;;;;;3.20;2.90;;;8.40;99.90;;;;;;4973679;28;20224;-78
2021/12/04 08:24:51;;;;;;;2.95;2.75;;;8.60;99.90;;;;;;4973446;28;20176;-76
2021/12/04 08:27:17;;;;;;;3.25;2.65;;;8.50;99.90;;;;;;4973079;28;20258;-84
2021/12/04 08:29:44;;;;;;;2.72;2.53;;;8.40;99.90;;;;;;4968719;28;20188;-78
2021/12/04 08:32:10;;;;;;;3.80;3.05;;;8.30;99.90;;;;;;4957326;28;20166;-84
2021/12/04 08:34:37;;;;;;;6.00;3.15;;;8.50;99.90;;;;;;4978759;28;20166;-77
2021/12/04 08:37:03;;;;;;;5.10;2.55;;;8.60;99.90;;;;;;4973574;28;20684;-83
2021/12/04 08:39:30;;;;;;;5.43;3.00;;;8.80;99.90;;;;;;4973634;28;20178;-81
2021/12/04 08:41:56;;;;;;;3.25;2.83;;;9.00;99.90;;;;;;4973675;28;20174;-80
2021/12/04 08:44:22;;;;;;;2.53;2.00;;;9.10;99.90;;;;;;4974006;28;20566;-77
2021/12/04 08:46:48;;;;;;;3.35;3.05;;;9.20;99.90;;;;;;4956238;28;20178;-77
2021/12/04 08:49:14;;;;;;;2.95;2.65;;;9.10;99.90;;;;;;4973254;28;20256;-77
2021/12/04 08:51:42;;;;;;;4.20;3.80;;;8.80;99.90;;;;;;4973689;28;20596;-84
2021/12/04 08:54:08;;;;;;;3.63;3.33;;;9.00;99.90;;;;;;4973950;28;20166;-82
2021/12/04 08:56:36;;;;;;;4.55;3.03;;;8.70;99.90;;;;;;4973766;28;20652;-79
2021/12/04 08:59:03;;;;;;;8.95;3.65;;;8.50;99.90;;;;;;4973714;28;20209;-77
2021/12/04 09:01:32;;;;;;;3.58;2.63;;;8.20;99.90;;;;;;4959815;28;20165;-81
2021/12/04 09:04:06;;;;;;;12.88;2.97;;;8.20;99.90;;;;;;4977930;28;20184;-80
2021/12/04 09:06:35;;;;;;;3.20;2.90;;;8.20;99.90;;;;;;4978066;28;20186;-84
2021/12/04 09:09:03;;;;;;;3.63;2.50;;;8.40;99.90;;;;;;4959866;28;20173;-79
2021/12/04 09:11:34;;;;;;;3.92;2.80;;;8.40;99.90;;;;;;4976998;28;20170;-84
2021/12/04 09:14:01;;;;;;;4.15;2.88;;;8.30;99.90;;;;;;4977136;28;20253;-78
2021/12/04 09:16:27;;;;;;;2.97;2.78;;;8.40;99.90;;;;;;4959131;28;20221;-84
2021/12/04 09:18:55;;;;;;;4.28;2.88;;;8.60;99.90;;;;;;4977030;28;20217;-77
2021/12/04 09:21:21;;;;;;;4.70;3.67;;;8.40;99.90;;;;;;4977189;28;20220;-82
2021/12/04 09:24:00;;;;;;;3.47;3.05;;;8.30;99.90;;;;;;4976896;28;20276;-81
2021/12/04 09:31:49;;;;;;;3.65;3.35;;;8.80;99.90;;;;;;4961766;28;20183;-77
2021/12/04 10:04:34;;;;;;;8.43;5.20;;;8.60;99.90;;;;;;4933477;29;20183;-78
2021/12/04 10:33:49;;;;;;;9.50;5.70;;;8.60;99.90;;;;;;4977346;28;20189;-84
2021/12/04 10:36:39;;;;;;;14.85;6.43;;;8.70;99.90;;;;;;4958700;28;20256;-77
2021/12/04 10:39:10;;;;;;;12.50;6.25;;;8.40;99.90;;;;;;4958798;28;20190;-81
2021/12/04 10:41:40;;;;;;;22.60;6.15;;;8.30;99.90;;;;;;4975599;28;20507;-79
2021/12/04 10:44:17;;;;;;;12.73;5.72;;;8.40;99.90;;;;;;4975543;28;20252;-77
2021/12/04 10:47:05;;;;;;;11.10;6.43;;;8.30;99.90;;;;;;4957746;28;20194;-77
2021/12/04 10:49:42;;;;;;;10.82;6.30;;;8.20;99.90;;;;;;4975429;28;20170;-79
2021/12/04 10:55:19;;;;;;;8.00;5.32;;;7.90;99.90;;;;;;4974562;28;20196;-78
2021/12/04 11:02:57;;;;;;;11.32;6.85;;;7.90;99.90;;;;;;4974121;28;20178;-77
2021/12/04 11:22:48;;;;;;;8.13;4.20;;;7.80;99.90;;;;;;4973971;28;20256;-78
2021/12/04 11:25:41;;;;;;;8.35;4.60;;;7.70;99.90;;;;;;4974891;28;20207;-78
2021/12/04 11:36:57;;;;;;;5.13;4.32;;;7.50;99.90;;;;;;4975195;28;20224;-77
2021/12/04 11:46:56;;;;;;;6.10;5.50;;;7.60;99.90;;;;;;4946890;28;20202;-80
2021/12/04 11:49:26;;;;;;;6.18;4.63;;;7.70;99.90;;;;;;4974852;28;20192;-77
2021/12/04 11:51:58;;;;;;;8.10;3.92;;;7.80;99.90;;;;;;4974698;28;20201;-81
2021/12/04 11:54:30;;;;;;;7.45;3.55;;;7.90;99.90;;;;;;4974962;28;20178;-78
2021/12/04 11:57:10;;;;;;;4.65;3.58;;;7.80;99.90;;;;;;4975136;28;20270;-78
2021/12/04 11:59:38;;;;;;;4.50;3.58;;;7.90;99.90;;;;;;4957872;28;20245;-78
2021/12/04 12:02:06;;;;;;;3.78;3.17;;;7.90;99.90;;;;;;4982515;28;20190;-78
2021/12/04 12:04:45;;;;;;;6.40;3.85;;;8.10;99.90;;;;;;4975345;28;20174;-78
2021/12/04 12:07:32;;;;;;;9.68;4.55;;;8.10;99.90;;;;;;4977016;28;20660;-77
2021/12/04 12:10:17;;;;;;;4.75;4.00;;;8.30;99.90;;;;;;4958085;28;20166;-77
2021/12/04 12:12:46;;;;;;;3.83;3.50;;;8.20;99.90;;;;;;4974760;28;20178;-81
2021/12/04 12:15:35;;;;;;;9.43;3.47;;;8.10;99.90;;;;;;4974216;28;20185;-78
2021/12/04 12:18:13;;;;;;;7.45;3.95;;;8.00;99.90;;;;;;4974461;28;20228;-78
2021/12/04 12:21:02;;;;;;;6.00;3.25;;;7.90;99.90;;;;;;4974691;28;20201;-81
2021/12/04 12:23:31;;;;;;;4.07;3.67;;;7.90;99.90;;;;;;4957262;28;20213;-78
2021/12/04 12:26:18;;;;;;;3.53;3.22;;;8.00;99.90;;;;;;4973009;28;20193;-79
2021/12/04 12:37:21;;;;;;;4.03;3.20;;;7.80;99.90;;;;;;4976062;28;20727;-80
2021/12/04 12:40:04;;;;;;;3.70;3.40;;;7.90;99.90;;;;;;4959279;28;20178;-78
2021/12/04 12:42:35;;;;;;;5.38;3.92;;;8.00;99.90;;;;;;4974236;28;20173;-80
2021/12/04 12:45:22;;;;;;;6.53;5.93;;;8.00;99.90;;;;;;4957020;28;20636;-77
2021/12/04 12:47:57;;;;;;;6.97;5.68;;;7.80;99.90;;;;;;4973609;28;20225;-77
2021/12/04 12:50:46;;;;;;;4.97;4.57;;;7.80;99.90;;;;;;4956901;28;20176;-78
2021/12/04 12:53:16;;;;;;;6.60;5.90;;;7.80;99.90;;;;;;4974032;28;20701;-79
2021/12/04 12:55:45;;;;;;;5.25;4.43;;;7.90;99.90;;;;;;4973953;28;20257;-77
2021/12/04 12:58:23;;;;;;;5.45;4.55;;;7.90;99.90;;;;;;4973953;28;20205;-81
2021/12/04 13:12:13;;;;;;;4.15;3.75;;;8.10;99.90;;;;;;4974699;28;20193;-81
2021/12/04 13:14:41;;;;;;;4.40;3.92;;;7.90;99.90;;;;;;4973831;28;20169;-78
2021/12/04 13:17:10;;;;;;;11.43;4.25;;;7.90;99.90;;;;;;4974038;28;20209;-78
2021/12/04 13:19:39;;;;;;;4.78;4.30;;;7.90;99.90;;;;;;4959133;28;20170;-79
2021/12/04 13:22:11;;;;;;;6.38;4.45;;;8.00;99.90;;;;;;4956216;28;20267;-76
2021/12/04 13:24:39;;;;;;;6.38;3.83;;;8.00;99.90;;;;;;4973540;28;20185;-77
2021/12/04 13:29:47;;;;;;;3.65;3.35;;;7.90;99.90;;;;;;4975605;28;20229;-78
2021/12/04 13:32:15;;;;;;;3.92;3.53;;;7.90;99.90;;;;;;4974529;28;20204;-83
2021/12/04 13:34:43;;;;;;;5.22;4.40;;;7.90;99.90;;;;;;4973946;28;20166;-79
2021/12/04 13:37:10;;;;;;;5.30;4.32;;;8.00;99.90;;;;;;4973308;28;20206;-76
2021/12/04 13:39:43;;;;;;;6.20;4.43;;;8.00;99.90;;;;;;4956204;28;20181;-80
2021/12/04 13:42:09;;;;;;;3.90;3.45;;;8.00;99.90;;;;;;4973787;28;20173;-79
2021/12/04 13:44:35;;;;;;;7.22;4.35;;;8.00;99.90;;;;;;4973766;28;20248;-81
2021/12/04 13:47:08;;;;;;;5.72;4.93;;;8.00;99.90;;;;;;4959817;28;20228;-81
2021/12/04 13:50:00;;;;;;;6.03;3.30;;;8.10;99.90;;;;;;4977242;28;20169;-82
2021/12/04 13:52:29;;;;;;;8.23;3.88;;;8.20;99.90;;;;;;4976423;28;20625;-80
2021/12/04 13:55:03;;;;;;;8.30;4.50;;;8.30;99.90;;;;;;4977055;28;20257;-83
2021/12/04 13:57:28;;;;;;;9.23;4.05;;;8.40;99.90;;;;;;4976568;28;20244;-78
2021/12/04 13:59:58;;;;;;;7.57;3.25;;;8.50;99.90;;;;;;4976980;28;20630;-82
2021/12/04 14:02:30;;;;;;;6.35;3.42;;;8.40;99.90;;;;;;4976910;28;20190;-80
2021/12/04 14:05:02;;;;;;;8.55;3.80;;;8.50;99.90;;;;;;4976800;28;20162;-77
2021/12/04 14:07:28;;;;;;;7.75;3.50;;;8.60;99.90;;;;;;4959348;28;20220;-79
2021/12/04 14:09:54;;;;;;;5.22;3.30;;;8.40;99.90;;;;;;4977184;28;20170;-78
2021/12/04 14:12:22;;;;;;;8.80;3.38;;;8.40;99.90;;;;;;4979324;28;20177;-78
2021/12/04 14:14:48;;;;;;;12.25;3.20;;;8.40;99.90;;;;;;4980860;28;20164;-82
2021/12/04 14:17:16;;;;;;;10.82;3.63;;;8.30;99.90;;;;;;4981153;28;20206;-79
2021/12/04 14:19:43;;;;;;;4.32;2.78;;;8.20;99.90;;;;;;4981533;28;20181;-76
2021/12/04 14:22:18;;;;;;;2.60;2.30;;;8.30;99.90;;;;;;4987815;28;20174;-80
2021/12/04 14:24:59;;;;;;;4.97;1.90;;;8.30;99.90;;;;;;4990156;28;20205;-77
2021/12/04 14:27:34;;;;;;;2.83;1.88;;;8.20;99.90;;;;;;4971609;28;20189;-78
2021/12/04 14:30:10;;;;;;;7.35;1.65;;;8.00;99.90;;;;;;4992285;28;20166;-79
2021/12/04 14:32:39;;;;;;;3.25;1.85;;;8.00;99.90;;;;;;4988489;28;20165;-81
2021/12/04 14:35:09;;;;;;;7.45;2.08;;;7.90;99.90;;;;;;4976583;28;20617;-79
2021/12/04 14:37:38;;;;;;;9.55;2.33;;;7.80;99.90;;;;;;4976136;28;20213;-79
2021/12/04 14:40:06;;;;;;;4.43;2.40;;;7.90;99.90;;;;;;4976103;28;20617;-78
2021/12/04 14:42:32;;;;;;;7.10;2.35;;;7.90;99.90;;;;;;4976236;28;20158;-78
2021/12/04 14:45:03;;;;;;;6.95;4.30;;;8.00;99.90;;;;;;4958641;28;20599;-81
2021/12/04 14:47:37;;;;;;;9.75;4.75;;;8.00;99.90;;;;;;4975717;28;20185;-79
2021/12/04 14:50:07;;;;;;;14.43;5.63;;;8.00;99.90;;;;;;4958280;28;20184;-81
2021/12/04 14:52:34;;;;;;;8.40;2.38;;;8.00;99.90;;;;;;4975835;28;20174;-80
2021/12/04 14:55:12;;;;;;;13.32;2.90;;;8.10;99.90;;;;;;4976045;28;20196;-79
2021/12/04 14:57:41;;;;;;;6.88;2.78;;;8.10;99.90;;;;;;4957294;28;20209;-78
2021/12/04 15:00:12;;;;;;;11.02;2.45;;;7.90;99.90;;;;;;4975812;28;20177;-78
2021/12/04 15:02:38;;;;;;;4.85;2.17;;;7.90;99.90;;;;;;4975459;28;20174;-77
2021/12/04 15:05:06;;;;;;;6.55;2.28;;;7.90;99.90;;;;;;4975658;28;20197;-79
2021/12/04 15:07:34;;;;;;;9.02;2.97;;;7.90;99.90;;;;;;4975176;28;20596;-77
2021/12/04 15:10:17;;;;;;;10.77;3.65;;;7.80;99.90;;;;;;4975462;28;20185;-78
2021/12/04 15:12:44;;;;;;;7.05;3.38;;;7.80;99.90;;;;;;4974962;28;20158;-78
2021/12/04 15:15:11;;;;;;;10.60;4.22;;;7.80;99.90;;;;;;4975069;28;20173;-78
2021/12/04 15:17:41;;;;;;;8.68;3.83;;;7.70;99.90;;;;;;4974755;28;20205;-79
2021/12/04 15:20:11;;;;;;;6.18;4.18;;;7.70;99.90;;;;;;4974869;28;20170;-78
2021/12/04 15:22:44;;;;;;;4.35;2.85;;;7.70;99.90;;;;;;4974636;28;20173;-79
2021/12/04 15:25:19;;;;;;;12.70;4.57;;;7.70;99.90;;;;;;4975120;28;20198;-79
2021/12/04 15:27:45;;;;;;;14.75;4.47;;;7.70;99.90;;;;;;4974982;28;20194;-78
2021/12/04 15:30:17;;;;;;;7.90;2.83;;;7.70;99.90;;;;;;4975177;28;20173;-78
2021/12/04 15:32:43;;;;;;;6.75;2.97;;;7.80;99.90;;;;;;4976898;28;20198;-80
2021/12/04 15:35:39;;;;;;;12.02;2.70;;;7.70;99.90;;;;;;4976072;28;20196;-78
2021/12/04 15:38:17;;;;;;;9.32;3.65;;;7.70;99.90;;;;;;4976226;28;20275;-77
2021/12/04 15:40:57;;;;;;;11.48;3.97;;;7.90;99.90;;;;;;4978847;28;20199;-78
2021/12/04 15:46:46;;;;;;;11.82;2.20;;;7.50;99.90;;;;;;4976222;28;20198;-78
2021/12/04 15:54:11;;;;;;;5.70;2.58;;;7.40;99.90;;;;;;4975726;28;20741;-78
2021/12/04 15:56:47;;;;;;;7.07;2.15;;;7.30;99.90;;;;;;4976425;28;20197;-77
2021/12/04 15:59:23;;;;;;;11.63;2.60;;;7.30;99.90;;;;;;4976211;28;20231;-79
2021/12/04 16:01:52;;;;;;;14.27;2.33;;;7.20;99.90;;;;;;4975501;28;20166;-79
2021/12/04 16:04:24;;;;;;;9.43;2.20;;;7.10;99.90;;;;;;4975206;28;20162;-78
2021/12/04 16:06:50;;;;;;;15.15;2.70;;;7.20;99.90;;;;;;4975211;28;20185;-78
2021/12/04 16:09:27;;;;;;;11.90;2.17;;;7.20;99.90;;;;;;4976000;28;20166;-78
2021/12/04 16:12:11;;;;;;;7.60;2.50;;;7.10;99.90;;;;;;4976500;28;20301;-77
2021/12/04 16:14:40;;;;;;;15.48;2.78;;;7.10;99.90;;;;;;4974336;28;20552;-77
2021/12/04 16:17:08;;;;;;;9.68;2.92;;;7.10;99.90;;;;;;4974517;28;20815;-77
2021/12/04 16:19:37;;;;;;;17.05;2.65;;;7.10;99.90;;;;;;4974667;28;20170;-77
2021/12/04 16:22:08;;;;;;;15.07;3.40;;;7.10;99.90;;;;;;4975189;28;20604;-79
2021/12/04 16:24:36;;;;;;;12.82;2.67;;;7.10;99.90;;;;;;4975050;28;20189;-77
2021/12/04 16:27:21;;;;;;;12.52;3.22;;;7.10;99.90;;;;;;4974654;28;20186;-77
2021/12/04 16:29:56;;;;;;;20.83;3.95;;;7.20;99.90;;;;;;4975057;28;20192;-77